sensor_id;sensor_type;location;lat;lon;timestamp;P1;durP1;ratioP1;P2;durP2;ratioP2
21827;SDS011;11076;47.942;11.804;2022-12-07T00:04:59;19.37;;;11.37;;
21827;SDS011;11076;47.942;11.804;2022-12-07T00:10:01;18.47;;;10.37;;
21827;SDS011;11076;47.942;11.804;2022-12-07T00:15:04;21.67;;;11.17;;
21827;SDS011;11076;47.942;11.804;2022-12-07T00:20:07;19.33;;;10.27;;
21827;SDS011;11076;47.942;11.804;2022-12-07T00:25:09;17.83;;;11.10;;
21827;SDS011;11076;47.942;11.804;2022-12-07T00:30:12;19.03;;;11.27;;
21827;SDS011;11076;47.942;11.804;2022-12-07T00:35:14;21.50;;;10.47;;
21827;SDS011;11076;47.942;11.804;2022-12-07T00:40:17;23.37;;;11.00;;
21827;SDS011;11076;47.942;11.804;2022-12-07T00:45:19;23.13;;;11.53;;
21827;SDS011;11076;47.942;11.804;2022-12-07T00:50:21;19.33;;;10.70;;
21827;SDS011;11076;47.942;11.804;2022-12-07T00:55:24;15.27;;;9.73;;
21827;SDS011;11076;47.942;11.804;2022-12-07T01:00:26;17.37;;;10.90;;
21827;SDS011;11076;47.942;11.804;2022-12-07T01:05:28;16.63;;;9.77;;
21827;SDS011;11076;47.942;11.804;2022-12-07T01:10:31;17.93;;;10.50;;
21827;SDS011;11076;47.942;11.804;2022-12-07T01:15:34;17.63;;;10.80;;
21827;SDS011;11076;47.942;11.804;2022-12-07T01:20:36;16.77;;;10.57;;
21827;SDS011;11076;47.942;11.804;2022-12-07T01:25:39;15.73;;;10.17;;
21827;SDS011;11076;47.942;11.804;2022-12-07T01:30:41;16.60;;;9.70;;
21827;SDS011;11076;47.942;11.804;2022-12-07T01:35:43;15.37;;;10.30;;
21827;SDS011;11076;47.942;11.804;2022-12-07T01:40:52;18.33;;;10.87;;
21827;SDS011;11076;47.942;11.804;2022-12-07T01:45:56;20.23;;;11.00;;
21827;SDS011;11076;47.942;11.804;2022-12-07T01:51:00;19.57;;;10.50;;
21827;SDS011;11076;47.942;11.804;2022-12-07T01:56:08;18.10;;;9.67;;
21827;SDS011;11076;47.942;11.804;2022-12-07T02:01:15;19.13;;;10.67;;
21827;SDS011;11076;47.942;11.804;2022-12-07T02:06:19;17.57;;;10.63;;
21827;SDS011;11076;47.942;11.804;2022-12-07T02:11:24;20.97;;;11.83;;
21827;SDS011;11076;47.942;11.804;2022-12-07T02:22:09;17.83;;;10.37;;
21827;SDS011;11076;47.942;11.804;2022-12-07T02:32:23;19.23;;;10.00;;
21827;SDS011;11076;47.942;11.804;2022-12-07T02:37:35;18.17;;;11.03;;
21827;SDS011;11076;47.942;11.804;2022-12-07T02:42:44;21.27;;;12.30;;
21827;SDS011;11076;47.942;11.804;2022-12-07T02:47:51;21.77;;;12.50;;
21827;SDS011;11076;47.942;11.804;2022-12-07T02:52:57;19.33;;;11.97;;
21827;SDS011;11076;47.942;11.804;2022-12-07T03:03:35;21.47;;;11.47;;
21827;SDS011;11076;47.942;11.804;2022-12-07T03:14:06;17.17;;;9.77;;
21827;SDS011;11076;47.942;11.804;2022-12-07T03:19:17;15.17;;;9.97;;
21827;SDS011;11076;47.942;11.804;2022-12-07T03:24:28;19.37;;;9.77;;
21827;SDS011;11076;47.942;11.804;2022-12-07T03:29:36;22.17;;;11.60;;
21827;SDS011;11076;47.942;11.804;2022-12-07T03:34:47;19.30;;;10.90;;
21827;SDS011;11076;47.942;11.804;2022-12-07T03:45:18;18.10;;;10.00;;
21827;SDS011;11076;47.942;11.804;2022-12-07T03:55:52;17.47;;;10.00;;
21827;SDS011;11076;47.942;11.804;2022-12-07T04:00:56;17.20;;;10.27;;
21827;SDS011;11076;47.942;11.804;2022-12-07T04:05:58;17.47;;;10.30;;
21827;SDS011;11076;47.942;11.804;2022-12-07T04:11:01;23.07;;;10.50;;
21827;SDS011;11076;47.942;11.804;2022-12-07T04:16:04;18.97;;;10.77;;
21827;SDS011;11076;47.942;11.804;2022-12-07T04:21:06;18.47;;;10.13;;
21827;SDS011;11076;47.942;11.804;2022-12-07T04:26:09;17.57;;;9.20;;
21827;SDS011;11076;47.942;11.804;2022-12-07T04:31:11;16.50;;;9.87;;
21827;SDS011;11076;47.942;11.804;2022-12-07T04:36:13;17.13;;;10.40;;
21827;SDS011;11076;47.942;11.804;2022-12-07T04:41:16;19.73;;;10.10;;
21827;SDS011;11076;47.942;11.804;2022-12-07T04:46:18;16.83;;;10.10;;
21827;SDS011;11076;47.942;11.804;2022-12-07T04:51:27;20.03;;;10.40;;
21827;SDS011;11076;47.942;11.804;2022-12-07T04:56:31;17.97;;;10.43;;
21827;SDS011;11076;47.942;11.804;2022-12-07T05:01:33;20.43;;;10.77;;
21827;SDS011;11076;47.942;11.804;2022-12-07T05:06:36;17.93;;;10.50;;
21827;SDS011;11076;47.942;11.804;2022-12-07T05:11:38;19.83;;;10.50;;
21827;SDS011;11076;47.942;11.804;2022-12-07T05:16:41;29.10;;;16.27;;
21827;SDS011;11076;47.942;11.804;2022-12-07T05:21:44;20.57;;;12.67;;
21827;SDS011;11076;47.942;11.804;2022-12-07T05:26:47;18.53;;;10.30;;
21827;SDS011;11076;47.942;11.804;2022-12-07T05:31:49;24.37;;;11.83;;
21827;SDS011;11076;47.942;11.804;2022-12-07T05:36:51;18.47;;;10.63;;
21827;SDS011;11076;47.942;11.804;2022-12-07T05:41:54;18.80;;;11.00;;
21827;SDS011;11076;47.942;11.804;2022-12-07T05:47:14;19.60;;;11.23;;
21827;SDS011;11076;47.942;11.804;2022-12-07T05:52:17;19.77;;;10.87;;
21827;SDS011;11076;47.942;11.804;2022-12-07T05:57:20;18.53;;;9.83;;
21827;SDS011;11076;47.942;11.804;2022-12-07T06:02:22;17.33;;;10.60;;
21827;SDS011;11076;47.942;11.804;2022-12-07T06:07:25;18.33;;;10.13;;
21827;SDS011;11076;47.942;11.804;2022-12-07T06:12:27;17.83;;;10.30;;
21827;SDS011;11076;47.942;11.804;2022-12-07T06:17:36;20.20;;;10.47;;
21827;SDS011;11076;47.942;11.804;2022-12-07T06:22:38;16.50;;;10.37;;
21827;SDS011;11076;47.942;11.804;2022-12-07T06:27:41;8.33;;;4.87;;
21827;SDS011;11076;47.942;11.804;2022-12-07T06:32:43;13.53;;;8.30;;
21827;SDS011;11076;47.942;11.804;2022-12-07T06:37:45;20.60;;;11.63;;
21827;SDS011;11076;47.942;11.804;2022-12-07T06:42:48;9.57;;;6.40;;
21827;SDS011;11076;47.942;11.804;2022-12-07T06:47:50;13.47;;;8.10;;
21827;SDS011;11076;47.942;11.804;2022-12-07T06:52:52;13.57;;;8.23;;
21827;SDS011;11076;47.942;11.804;2022-12-07T06:57:55;14.33;;;8.87;;
21827;SDS011;11076;47.942;11.804;2022-12-07T07:02:57;17.00;;;9.17;;
21827;SDS011;11076;47.942;11.804;2022-12-07T07:07:59;20.17;;;10.37;;
21827;SDS011;11076;47.942;11.804;2022-12-07T07:13:22;26.07;;;11.67;;
21827;SDS011;11076;47.942;11.804;2022-12-07T07:18:25;14.07;;;8.90;;
21827;SDS011;11076;47.942;11.804;2022-12-07T07:23:27;14.23;;;8.93;;
21827;SDS011;11076;47.942;11.804;2022-12-07T07:28:30;16.60;;;8.03;;
21827;SDS011;11076;47.942;11.804;2022-12-07T07:33:32;14.77;;;8.90;;
21827;SDS011;11076;47.942;11.804;2022-12-07T07:38:34;17.43;;;9.33;;
21827;SDS011;11076;47.942;11.804;2022-12-07T07:43:37;18.10;;;9.97;;
21827;SDS011;11076;47.942;11.804;2022-12-07T07:48:39;15.30;;;10.50;;
21827;SDS011;11076;47.942;11.804;2022-12-07T07:53:41;12.43;;;6.77;;
21827;SDS011;11076;47.942;11.804;2022-12-07T07:58:44;14.47;;;8.07;;
21827;SDS011;11076;47.942;11.804;2022-12-07T08:03:46;14.73;;;8.90;;
21827;SDS011;11076;47.942;11.804;2022-12-07T08:08:49;14.07;;;9.30;;
21827;SDS011;11076;47.942;11.804;2022-12-07T08:13:51;17.23;;;10.07;;
21827;SDS011;11076;47.942;11.804;2022-12-07T08:18:53;18.67;;;9.67;;
21827;SDS011;11076;47.942;11.804;2022-12-07T08:23:56;15.07;;;9.53;;
21827;SDS011;11076;47.942;11.804;2022-12-07T08:28:59;11.53;;;8.37;;
21827;SDS011;11076;47.942;11.804;2022-12-07T08:34:01;16.03;;;8.57;;
21827;SDS011;11076;47.942;11.804;2022-12-07T08:39:04;13.83;;;8.87;;
21827;SDS011;11076;47.942;11.804;2022-12-07T08:44:26;14.27;;;9.07;;
21827;SDS011;11076;47.942;11.804;2022-12-07T08:49:31;14.90;;;9.60;;
21827;SDS011;11076;47.942;11.804;2022-12-07T08:54:38;15.80;;;9.73;;
21827;SDS011;11076;47.942;11.804;2022-12-07T08:59:42;16.60;;;10.23;;
21827;SDS011;11076;47.942;11.804;2022-12-07T09:04:44;12.07;;;9.00;;
21827;SDS011;11076;47.942;11.804;2022-12-07T09:09:46;14.07;;;9.27;;
21827;SDS011;11076;47.942;11.804;2022-12-07T09:14:48;14.37;;;9.40;;
21827;SDS011;11076;47.942;11.804;2022-12-07T09:19:51;16.10;;;8.93;;
21827;SDS011;11076;47.942;11.804;2022-12-07T09:24:53;16.70;;;9.70;;
21827;SDS011;11076;47.942;11.804;2022-12-07T09:29:56;12.60;;;8.57;;
21827;SDS011;11076;47.942;11.804;2022-12-07T09:34:58;14.97;;;8.70;;
21827;SDS011;11076;47.942;11.804;2022-12-07T09:40:01;13.00;;;9.17;;
21827;SDS011;11076;47.942;11.804;2022-12-07T09:45:07;14.63;;;9.53;;
21827;SDS011;11076;47.942;11.804;2022-12-07T09:50:16;15.13;;;8.93;;
21827;SDS011;11076;47.942;11.804;2022-12-07T09:55:26;14.80;;;9.53;;
21827;SDS011;11076;47.942;11.804;2022-12-07T10:00:31;17.70;;;10.50;;
21827;SDS011;11076;47.942;11.804;2022-12-07T10:05:37;13.70;;;9.43;;
21827;SDS011;11076;47.942;11.804;2022-12-07T10:10:44;13.53;;;9.03;;
21827;SDS011;11076;47.942;11.804;2022-12-07T10:15:54;13.97;;;9.83;;
21827;SDS011;11076;47.942;11.804;2022-12-07T10:21:00;14.50;;;9.50;;
21827;SDS011;11076;47.942;11.804;2022-12-07T10:26:19;11.83;;;8.23;;
21827;SDS011;11076;47.942;11.804;2022-12-07T10:31:30;12.47;;;8.20;;
21827;SDS011;11076;47.942;11.804;2022-12-07T10:36:36;13.33;;;9.03;;
21827;SDS011;11076;47.942;11.804;2022-12-07T10:41:58;12.93;;;8.97;;
21827;SDS011;11076;47.942;11.804;2022-12-07T11:08:12;11.50;;;8.83;;
21827;SDS011;11076;47.942;11.804;2022-12-07T11:19:25;13.83;;;9.77;;
21827;SDS011;11076;47.942;11.804;2022-12-07T11:25:09;15.40;;;10.20;;
21827;SDS011;11076;47.942;11.804;2022-12-07T11:30:23;13.50;;;9.50;;
21827;SDS011;11076;47.942;11.804;2022-12-07T11:35:46;11.73;;;9.13;;
21827;SDS011;11076;47.942;11.804;2022-12-07T11:40:53;13.30;;;9.10;;
21827;SDS011;11076;47.942;11.804;2022-12-07T11:46:15;11.93;;;8.13;;
21827;SDS011;11076;47.942;11.804;2022-12-07T11:51:18;10.80;;;7.73;;
21827;SDS011;11076;47.942;11.804;2022-12-07T11:56:23;11.40;;;7.40;;
21827;SDS011;11076;47.942;11.804;2022-12-07T12:07:15;9.13;;;6.00;;
21827;SDS011;11076;47.942;11.804;2022-12-07T12:24:27;9.83;;;6.93;;
21827;SDS011;11076;47.942;11.804;2022-12-07T12:29:35;9.60;;;6.53;;
21827;SDS011;11076;47.942;11.804;2022-12-07T12:45:20;9.10;;;5.97;;
21827;SDS011;11076;47.942;11.804;2022-12-07T13:00:45;10.17;;;6.97;;
21827;SDS011;11076;47.942;11.804;2022-12-07T13:05:49;10.40;;;6.77;;
21827;SDS011;11076;47.942;11.804;2022-12-07T13:11:30;9.70;;;7.60;;
21827;SDS011;11076;47.942;11.804;2022-12-07T13:16:37;10.57;;;5.20;;
21827;SDS011;11076;47.942;11.804;2022-12-07T13:21:42;10.97;;;7.50;;
21827;SDS011;11076;47.942;11.804;2022-12-07T13:26:45;9.73;;;7.57;;
21827;SDS011;11076;47.942;11.804;2022-12-07T13:31:54;6.23;;;4.60;;
21827;SDS011;11076;47.942;11.804;2022-12-07T13:37:04;11.43;;;8.07;;
21827;SDS011;11076;47.942;11.804;2022-12-07T13:47:40;11.73;;;8.23;;
21827;SDS011;11076;47.942;11.804;2022-12-07T13:52:46;10.50;;;7.17;;
21827;SDS011;11076;47.942;11.804;2022-12-07T13:57:51;10.13;;;7.43;;
21827;SDS011;11076;47.942;11.804;2022-12-07T14:07:58;11.57;;;7.93;;
21827;SDS011;11076;47.942;11.804;2022-12-07T14:13:39;10.47;;;7.37;;
21827;SDS011;11076;47.942;11.804;2022-12-07T14:18:38;11.03;;;7.60;;
21827;SDS011;11076;47.942;11.804;2022-12-07T14:23:42;12.80;;;8.23;;
21827;SDS011;11076;47.942;11.804;2022-12-07T14:28:44;13.97;;;8.27;;
21827;SDS011;11076;47.942;11.804;2022-12-07T14:33:47;12.43;;;8.27;;
21827;SDS011;11076;47.942;11.804;2022-12-07T14:38:49;11.23;;;7.57;;
21827;SDS011;11076;47.942;11.804;2022-12-07T14:43:55;11.87;;;8.37;;
21827;SDS011;11076;47.942;11.804;2022-12-07T14:49:08;12.37;;;7.80;;
21827;SDS011;11076;47.942;11.804;2022-12-07T14:54:31;11.63;;;8.27;;
21827;SDS011;11076;47.942;11.804;2022-12-07T14:59:34;10.60;;;7.37;;
21827;SDS011;11076;47.942;11.804;2022-12-07T15:04:38;11.47;;;7.23;;
21827;SDS011;11076;47.942;11.804;2022-12-07T15:09:41;15.43;;;8.70;;
21827;SDS011;11076;47.942;11.804;2022-12-07T15:14:45;10.80;;;7.63;;
21827;SDS011;11076;47.942;11.804;2022-12-07T15:19:47;10.53;;;7.00;;
21827;SDS011;11076;47.942;11.804;2022-12-07T15:24:49;17.10;;;10.07;;
21827;SDS011;11076;47.942;11.804;2022-12-07T15:29:51;14.23;;;9.47;;
21827;SDS011;11076;47.942;11.804;2022-12-07T15:34:55;13.60;;;8.37;;
21827;SDS011;11076;47.942;11.804;2022-12-07T15:39:57;12.37;;;7.40;;
21827;SDS011;11076;47.942;11.804;2022-12-07T15:45:03;14.33;;;8.77;;
21827;SDS011;11076;47.942;11.804;2022-12-07T15:50:09;15.63;;;10.03;;
21827;SDS011;11076;47.942;11.804;2022-12-07T15:55:13;13.33;;;8.83;;
21827;SDS011;11076;47.942;11.804;2022-12-07T16:00:16;17.87;;;9.90;;
21827;SDS011;11076;47.942;11.804;2022-12-07T16:05:19;10.40;;;7.20;;
21827;SDS011;11076;47.942;11.804;2022-12-07T16:10:21;10.17;;;6.90;;
21827;SDS011;11076;47.942;11.804;2022-12-07T16:15:24;15.57;;;8.80;;
21827;SDS011;11076;47.942;11.804;2022-12-07T16:20:27;15.17;;;9.23;;
21827;SDS011;11076;47.942;11.804;2022-12-07T16:25:29;12.43;;;8.40;;
21827;SDS011;11076;47.942;11.804;2022-12-07T16:30:32;15.20;;;9.77;;
21827;SDS011;11076;47.942;11.804;2022-12-07T16:35:37;17.00;;;10.20;;
21827;SDS011;11076;47.942;11.804;2022-12-07T16:40:42;24.70;;;12.57;;
21827;SDS011;11076;47.942;11.804;2022-12-07T16:45:46;17.63;;;10.43;;
21827;SDS011;11076;47.942;11.804;2022-12-07T16:50:51;14.93;;;7.77;;
21827;SDS011;11076;47.942;11.804;2022-12-07T16:55:55;32.80;;;8.07;;
21827;SDS011;11076;47.942;11.804;2022-12-07T17:00:58;15.47;;;9.40;;
21827;SDS011;11076;47.942;11.804;2022-12-07T17:06:00;16.83;;;8.83;;
21827;SDS011;11076;47.942;11.804;2022-12-07T17:11:02;14.57;;;8.90;;
21827;SDS011;11076;47.942;11.804;2022-12-07T17:16:11;12.87;;;8.10;;
21827;SDS011;11076;47.942;11.804;2022-12-07T17:21:14;13.97;;;7.27;;
21827;SDS011;11076;47.942;11.804;2022-12-07T17:26:18;13.63;;;7.73;;
21827;SDS011;11076;47.942;11.804;2022-12-07T17:31:24;12.10;;;7.53;;
21827;SDS011;11076;47.942;11.804;2022-12-07T17:36:28;14.53;;;8.40;;
21827;SDS011;11076;47.942;11.804;2022-12-07T17:41:32;20.13;;;10.13;;
21827;SDS011;11076;47.942;11.804;2022-12-07T17:46:53;15.17;;;9.37;;
21827;SDS011;11076;47.942;11.804;2022-12-07T17:51:58;17.63;;;10.23;;
21827;SDS011;11076;47.942;11.804;2022-12-07T17:57:19;12.20;;;8.03;;
21827;SDS011;11076;47.942;11.804;2022-12-07T18:02:22;11.93;;;6.13;;
21827;SDS011;11076;47.942;11.804;2022-12-07T18:07:24;12.57;;;7.07;;
21827;SDS011;11076;47.942;11.804;2022-12-07T18:12:27;11.80;;;6.77;;
21827;SDS011;11076;47.942;11.804;2022-12-07T18:17:29;10.97;;;7.43;;
21827;SDS011;11076;47.942;11.804;2022-12-07T18:22:32;10.17;;;6.93;;
21827;SDS011;11076;47.942;11.804;2022-12-07T18:27:34;10.80;;;7.23;;
21827;SDS011;11076;47.942;11.804;2022-12-07T18:32:36;12.57;;;7.77;;
21827;SDS011;11076;47.942;11.804;2022-12-07T18:37:39;14.93;;;8.77;;
21827;SDS011;11076;47.942;11.804;2022-12-07T18:42:42;11.17;;;7.20;;
21827;SDS011;11076;47.942;11.804;2022-12-07T18:47:44;10.47;;;7.10;;
21827;SDS011;11076;47.942;11.804;2022-12-07T18:52:47;15.97;;;9.40;;
21827;SDS011;11076;47.942;11.804;2022-12-07T18:57:49;10.17;;;6.73;;
21827;SDS011;11076;47.942;11.804;2022-12-07T19:02:52;11.53;;;6.93;;
21827;SDS011;11076;47.942;11.804;2022-12-07T19:07:55;9.53;;;5.77;;
21827;SDS011;11076;47.942;11.804;2022-12-07T19:12:57;10.57;;;7.03;;
21827;SDS011;11076;47.942;11.804;2022-12-07T19:18:00;16.37;;;9.53;;
21827;SDS011;11076;47.942;11.804;2022-12-07T19:23:02;12.43;;;7.37;;
21827;SDS011;11076;47.942;11.804;2022-12-07T19:28:04;10.80;;;6.80;;
21827;SDS011;11076;47.942;11.804;2022-12-07T19:33:07;20.27;;;11.37;;
21827;SDS011;11076;47.942;11.804;2022-12-07T19:38:09;14.77;;;10.00;;
21827;SDS011;11076;47.942;11.804;2022-12-07T19:43:11;14.97;;;8.93;;
21827;SDS011;11076;47.942;11.804;2022-12-07T19:48:14;14.70;;;8.00;;
21827;SDS011;11076;47.942;11.804;2022-12-07T19:53:16;15.10;;;8.37;;
21827;SDS011;11076;47.942;11.804;2022-12-07T19:58:18;14.57;;;7.43;;
21827;SDS011;11076;47.942;11.804;2022-12-07T20:03:20;18.67;;;8.87;;
21827;SDS011;11076;47.942;11.804;2022-12-07T20:08:23;15.40;;;8.53;;
21827;SDS011;11076;47.942;11.804;2022-12-07T20:13:27;17.37;;;10.17;;
21827;SDS011;11076;47.942;11.804;2022-12-07T20:18:33;40.13;;;17.70;;
21827;SDS011;11076;47.942;11.804;2022-12-07T20:23:35;26.27;;;13.83;;
21827;SDS011;11076;47.942;11.804;2022-12-07T20:28:38;17.80;;;9.77;;
21827;SDS011;11076;47.942;11.804;2022-12-07T20:33:42;19.43;;;9.07;;
21827;SDS011;11076;47.942;11.804;2022-12-07T20:38:47;12.37;;;7.73;;
21827;SDS011;11076;47.942;11.804;2022-12-07T20:43:49;14.00;;;8.13;;
21827;SDS011;11076;47.942;11.804;2022-12-07T20:48:52;16.10;;;8.93;;
21827;SDS011;11076;47.942;11.804;2022-12-07T20:53:55;12.77;;;8.20;;
21827;SDS011;11076;47.942;11.804;2022-12-07T20:58:58;12.50;;;7.80;;
21827;SDS011;11076;47.942;11.804;2022-12-07T21:04:02;21.03;;;12.83;;
21827;SDS011;11076;47.942;11.804;2022-12-07T21:09:05;15.70;;;9.67;;
21827;SDS011;11076;47.942;11.804;2022-12-07T21:14:08;11.97;;;7.77;;
21827;SDS011;11076;47.942;11.804;2022-12-07T21:19:10;14.73;;;8.20;;
21827;SDS011;11076;47.942;11.804;2022-12-07T21:24:13;13.63;;;8.30;;
21827;SDS011;11076;47.942;11.804;2022-12-07T21:29:15;13.00;;;8.13;;
21827;SDS011;11076;47.942;11.804;2022-12-07T21:34:18;13.07;;;8.10;;
21827;SDS011;11076;47.942;11.804;2022-12-07T21:39:20;17.23;;;9.57;;
21827;SDS011;11076;47.942;11.804;2022-12-07T21:44:22;16.47;;;8.17;;
21827;SDS011;11076;47.942;11.804;2022-12-07T21:49:25;13.50;;;8.50;;
21827;SDS011;11076;47.942;11.804;2022-12-07T21:54:27;16.43;;;9.53;;
21827;SDS011;11076;47.942;11.804;2022-12-07T21:59:29;13.50;;;8.43;;
21827;SDS011;11076;47.942;11.804;2022-12-07T22:04:32;14.60;;;8.37;;
21827;SDS011;11076;47.942;11.804;2022-12-07T22:09:34;15.80;;;8.87;;
21827;SDS011;11076;47.942;11.804;2022-12-07T22:14:37;14.70;;;9.07;;
21827;SDS011;11076;47.942;11.804;2022-12-07T22:19:58;16.43;;;9.10;;
21827;SDS011;11076;47.942;11.804;2022-12-07T22:25:00;12.80;;;8.07;;
21827;SDS011;11076;47.942;11.804;2022-12-07T22:30:06;14.47;;;7.93;;
21827;SDS011;11076;47.942;11.804;2022-12-07T22:35:10;12.13;;;7.90;;
21827;SDS011;11076;47.942;11.804;2022-12-07T22:40:12;15.00;;;8.47;;
21827;SDS011;11076;47.942;11.804;2022-12-07T22:45:15;14.57;;;7.47;;
21827;SDS011;11076;47.942;11.804;2022-12-07T22:50:19;14.37;;;8.60;;
21827;SDS011;11076;47.942;11.804;2022-12-07T22:55:21;12.40;;;7.43;;
21827;SDS011;11076;47.942;11.804;2022-12-07T23:00:23;14.10;;;8.10;;
21827;SDS011;11076;47.942;11.804;2022-12-07T23:05:26;13.77;;;8.40;;
21827;SDS011;11076;47.942;11.804;2022-12-07T23:10:28;16.17;;;8.87;;
21827;SDS011;11076;47.942;11.804;2022-12-07T23:15:33;16.10;;;8.27;;
21827;SDS011;11076;47.942;11.804;2022-12-07T23:20:37;13.57;;;8.40;;
21827;SDS011;11076;47.942;11.804;2022-12-07T23:25:39;14.93;;;8.80;;
21827;SDS011;11076;47.942;11.804;2022-12-07T23:30:41;12.87;;;8.07;;
21827;SDS011;11076;47.942;11.804;2022-12-07T23:35:44;13.27;;;8.13;;
21827;SDS011;11076;47.942;11.804;2022-12-07T23:40:46;13.00;;;8.37;;
21827;SDS011;11076;47.942;11.804;2022-12-07T23:45:49;15.77;;;8.57;;
21827;SDS011;11076;47.942;11.804;2022-12-07T23:50:54;16.63;;;8.73;;
21827;SDS011;11076;47.942;11.804;2022-12-07T23:55:57;13.40;;;8.33;;
